Time,TemperatureF,DewpointF,PressureIn,WindDirection,WindDirectionDegrees,WindSpeedMPH,WindSpeedGustMPH,Humidity,HourlyPrecipIn,Conditions,Clouds,dailyrainin,SoftwareType,DateUTC
2014-01-10 00:00:00,32.1,31.1,30.33,SW,231,1.0,3.0,96,0.00,,---,0.00,VWS V14.01,2014-01-10 05:00:00,
2014-01-10 00:10:00,32.2,31.2,30.33,SW,223,2.0,5.0,96,0.00,,---,0.00,VWS V14.01,2014-01-10 05:10:00,
2014-01-10 00:20:00,32.2,31.5,30.32,SW,223,2.0,3.0,97,0.00,,---,0.00,VWS V14.01,2014-01-10 05:20:00,
2014-01-10 00:30:00,32.2,31.5,30.31,SW,223,2.0,2.0,97,0.00,,---,0.00,VWS V14.01,2014-01-10 05:30:00,
2014-01-10 00:40:00,32.2,31.5,30.31,SW,223,2.0,2.0,97,0.00,,---,0.00,VWS V14.01,2014-01-10 05:40:00,
2014-01-10 00:50:00,32.2,31.5,30.31,SW,223,2.0,2.0,97,0.00,,---,0.00,VWS V14.01,2014-01-10 05:50:00,
2014-01-10 01:00:00,32.2,31.5,30.30,SW,223,2.0,2.0,97,0.00,,---,0.00,VWS V14.01,2014-01-10 06:00:00,
2014-01-10 01:10:00,32.2,31.5,30.30,SW,223,2.0,2.0,97,0.00,,---,0.00,VWS V14.01,2014-01-10 06:10:00,
2014-01-10 01:20:00,32.2,31.5,30.30,SW,223,2.0,2.0,97,0.00,,---,0.00,VWS V14.01,2014-01-10 06:20:00,
2014-01-10 01:30:00,32.2,31.5,30.30,SW,223,2.0,2.0,97,0.00,,---,0.00,VWS V14.01,2014-01-10 06:30:00,
2014-01-10 01:40:00,32.2,31.5,30.30,SW,223,2.0,2.0,97,0.00,,---,0.00,VWS V14.01,2014-01-10 06:40:00,
2014-01-10 01:50:00,32.2,31.5,30.30,SW,223,2.0,2.0,97,0.00,,---,0.00,VWS V14.01,2014-01-10 06:50:00,
2014-01-10 02:00:00,32.2,31.5,30.30,SW,223,2.0,2.0,97,0.00,,---,0.00,VWS V14.01,2014-01-10 07:00:00,
2014-01-10 02:10:00,32.2,31.5,30.30,SW,223,2.0,2.0,97,0.00,,---,0.00,VWS V14.01,2014-01-10 07:10:00,
2014-01-10 02:20:00,32.2,31.5,30.30,SW,223,2.0,2.0,97,0.00,,---,0.00,VWS V14.01,2014-01-10 07:20:00,
2014-01-10 02:30:00,32.2,31.5,30.30,SW,223,2.0,2.0,97,0.00,,---,0.00,VWS V14.01,2014-01-10 07:30:00,
2014-01-10 02:40:00,32.2,31.5,30.30,SW,223,2.0,2.0,97,0.00,,---,0.00,VWS V14.01,2014-01-10 07:40:00,
2014-01-10 02:50:00,32.2,31.5,30.30,SW,223,2.0,2.0,97,0.00,,---,0.00,VWS V14.01,2014-01-10 07:50:00,
2014-01-10 03:00:00,32.2,31.5,30.30,SW,223,2.0,2.0,97,0.00,,---,0.00,VWS V14.01,2014-01-10 08:00:00,
2014-01-10 03:10:00,32.2,31.5,30.30,SW,223,2.0,2.0,97,0.00,,---,0.00,VWS V14.01,2014-01-10 08:10:00,
2014-01-10 03:20:00,32.2,31.5,30.30,SW,223,2.0,2.0,97,0.00,,---,0.00,VWS V14.01,2014-01-10 08:20:00,
2014-01-10 03:30:00,32.2,31.5,30.30,SW,223,2.0,2.0,97,0.00,,---,0.00,VWS V14.01,2014-01-10 08:30:00,
2014-01-10 03:40:00,32.2,31.5,30.29,SW,223,2.0,2.0,97,0.00,,---,0.00,VWS V14.01,2014-01-10 08:40:00,
2014-01-10 03:50:00,32.2,31.5,30.29,SW,223,2.0,2.0,97,0.00,,---,0.00,VWS V14.01,2014-01-10 08:50:00,
2014-01-10 04:00:00,32.2,31.5,30.27,SW,223,2.0,2.0,97,0.00,,---,0.00,VWS V14.01,2014-01-10 09:00:00,
2014-01-10 04:10:00,32.2,31.5,30.27,SW,223,2.0,2.0,97,0.00,,---,0.00,VWS V14.01,2014-01-10 09:10:00,
2014-01-10 04:20:00,32.2,31.5,30.27,SW,223,2.0,2.0,97,0.00,,---,0.00,VWS V14.01,2014-01-10 09:20:00,
2014-01-10 04:30:00,32.2,31.5,30.27,SW,223,2.0,2.0,97,0.00,,---,0.00,VWS V14.01,2014-01-10 09:30:00,
2014-01-10 04:40:00,32.2,31.5,30.27,SW,223,2.0,2.0,97,0.00,,---,0.00,VWS V14.01,2014-01-10 09:40:00,
2014-01-10 04:50:00,32.2,31.5,30.27,SW,223,2.0,2.0,97,0.00,,---,0.00,VWS V14.01,2014-01-10 09:50:00,
2014-01-10 05:00:00,32.2,31.5,30.27,SW,223,2.0,2.0,97,0.00,,---,0.00,VWS V14.01,2014-01-10 10:00:00,
2014-01-10 05:10:00,32.2,31.5,30.27,SW,223,2.0,2.0,97,0.00,,---,0.00,VWS V14.01,2014-01-10 10:10:00,
2014-01-10 05:20:00,32.2,31.5,30.26,SW,223,2.0,2.0,97,0.00,,---,0.00,VWS V14.01,2014-01-10 10:20:00,
2014-01-10 05:30:00,32.2,31.5,30.25,SW,223,2.0,2.0,97,0.00,,---,0.00,VWS V14.01,2014-01-10 10:30:00,
2014-01-10 05:40:00,32.2,31.5,30.25,SW,223,2.0,2.0,97,0.00,,---,0.00,VWS V14.01,2014-01-10 10:40:00,
2014-01-10 05:50:00,32.2,31.5,30.25,SW,223,2.0,2.0,97,0.00,,---,0.00,VWS V14.01,2014-01-10 10:50:00,
2014-01-10 06:00:00,32.2,31.5,30.25,SW,223,2.0,2.0,97,0.00,,---,0.00,VWS V14.01,2014-01-10 11:00:00,
2014-01-10 06:10:00,32.2,31.5,30.25,SW,223,2.0,2.0,97,0.00,,---,0.00,VWS V14.01,2014-01-10 11:10:00,
2014-01-10 06:20:00,32.2,31.5,30.26,SW,223,2.0,2.0,97,0.00,,---,0.00,VWS V14.01,2014-01-10 11:20:00,
2014-01-10 06:30:00,32.2,31.5,30.25,SW,223,2.0,2.0,97,0.00,,---,0.00,VWS V14.01,2014-01-10 11:30:00,
2014-01-10 06:40:00,32.2,31.5,30.25,SW,223,2.0,2.0,97,0.00,,---,0.00,VWS V14.01,2014-01-10 11:40:00,
2014-01-10 06:50:00,32.2,31.5,30.26,SW,223,2.0,2.0,97,0.00,,---,0.00,VWS V14.01,2014-01-10 11:50:00,
2014-01-10 07:00:00,32.2,31.5,30.25,SW,223,2.0,2.0,97,0.00,,---,0.00,VWS V14.01,2014-01-10 12:00:00,
2014-01-10 07:10:00,32.2,31.5,30.25,SW,223,2.0,2.0,97,0.00,,---,0.00,VWS V14.01,2014-01-10 12:10:00,
2014-01-10 07:20:00,32.2,31.5,30.25,SW,223,2.0,2.0,97,0.00,,---,0.00,VWS V14.01,2014-01-10 12:20:00,
2014-01-10 07:30:00,32.2,31.5,30.25,SW,223,2.0,2.0,97,0.00,,---,0.00,VWS V14.01,2014-01-10 12:30:00,
2014-01-10 07:40:00,32.2,31.5,30.25,SW,223,2.0,2.0,97,0.00,,---,0.00,VWS V14.01,2014-01-10 12:40:00,
2014-01-10 07:50:00,32.2,31.5,30.25,SW,223,2.0,2.0,97,0.00,,---,0.00,VWS V14.01,2014-01-10 12:50:00,
2014-01-10 08:00:00,32.2,31.5,30.25,SW,223,2.0,2.0,97,0.00,,---,0.00,VWS V14.01,2014-01-10 13:00:00,
2014-01-10 08:10:00,32.2,31.5,30.25,SW,223,2.0,2.0,97,0.00,,---,0.00,VWS V14.01,2014-01-10 13:10:00,
2014-01-10 08:20:00,35.6,34.3,30.24,SW,224,3.0,4.0,95,0.01,,---,0.01,VWS V14.01,2014-01-10 13:20:00,
2014-01-10 08:30:00,35.6,34.3,30.24,SSW,200,3.0,5.0,95,0.05,,---,0.05,VWS V14.01,2014-01-10 13:30:00,
2014-01-10 08:40:00,35.9,34.6,30.24,SW,228,2.0,5.0,95,0.09,,---,0.09,VWS V14.01,2014-01-10 13:40:00,
2014-01-10 08:50:00,36.3,35.0,30.24,SW,229,4.0,5.0,95,0.13,,---,0.13,VWS V14.01,2014-01-10 13:50:00,
2014-01-10 09:00:00,36.9,35.6,30.23,SW,225,6.0,6.0,95,0.15,,---,0.15,VWS V14.01,2014-01-10 14:00:00,
2014-01-10 09:10:00,37.2,35.6,30.23,SSW,211,4.0,6.0,94,0.17,,---,0.17,VWS V14.01,2014-01-10 14:10:00,
2014-01-10 09:30:00,38.0,36.4,30.22,SW,228,3.0,6.0,94,0.21,,---,0.21,VWS V14.01,2014-01-10 14:30:00,
2014-01-10 09:40:00,38.5,36.7,30.22,SSW,207,5.0,6.0,93,0.19,,---,0.24,VWS V14.01,2014-01-10 14:40:00,
2014-01-10 10:31:00,38.9,37.0,30.21,SSW,195,4.0,7.0,93,0.17,,---,0.26,VWS V14.01,2014-01-10 15:31:00,
2014-01-10 10:41:00,39.1,37.0,30.21,SSW,211,4.0,7.0,92,0.08,,---,0.29,VWS V14.01,2014-01-10 15:41:00,
2014-01-10 10:51:00,39.3,37.2,30.21,SSW,200,7.0,7.0,92,0.07,,---,0.31,VWS V14.01,2014-01-10 15:51:00,
2014-01-10 11:01:00,39.5,37.4,30.21,SW,227,6.0,8.0,92,0.07,,---,0.33,VWS V14.01,2014-01-10 16:01:00,
2014-01-10 11:11:00,39.3,37.2,30.21,SSW,211,5.0,7.0,92,0.09,,---,0.35,VWS V14.01,2014-01-10 16:11:00,
2014-01-10 11:21:00,39.8,37.7,30.20,SW,215,4.0,7.0,92,0.11,,---,0.37,VWS V14.01,2014-01-10 16:21:00,
2014-01-10 11:31:00,39.9,37.8,30.18,SSW,195,4.0,7.0,92,0.14,,---,0.40,VWS V14.01,2014-01-10 16:31:00,
2014-01-10 11:41:00,40.2,38.1,30.18,SSW,203,3.0,7.0,92,0.16,,---,0.42,VWS V14.01,2014-01-10 16:41:00,
2014-01-10 11:51:00,40.8,38.4,30.17,SSW,200,9.0,9.0,91,0.16,,---,0.45,VWS V14.01,2014-01-10 16:51:00,
2014-01-10 12:01:00,41.2,38.8,30.16,SSW,194,3.0,9.0,91,0.16,,---,0.47,VWS V14.01,2014-01-10 17:01:00,
2014-01-10 12:11:00,41.6,39.2,30.16,SSW,209,4.0,9.0,91,0.17,,---,0.50,VWS V14.01,2014-01-10 17:11:00,
2014-01-10 12:21:00,41.6,38.9,30.15,SSW,210,4.0,10.0,90,0.18,,---,0.53,VWS V14.01,2014-01-10 17:21:00,
2014-01-10 12:31:00,41.5,38.8,30.13,SW,216,5.0,8.0,90,0.18,,---,0.55,VWS V14.01,2014-01-10 17:31:00,
2014-01-10 12:41:00,41.8,39.1,30.13,SW,224,3.0,9.0,90,0.17,,---,0.57,VWS V14.01,2014-01-10 17:41:00,
2014-01-10 12:51:00,41.9,39.2,30.12,SW,227,5.0,8.0,90,0.17,,---,0.59,VWS V14.01,2014-01-10 17:51:00,
2014-01-10 13:01:00,41.9,39.2,30.10,SW,232,6.0,6.0,90,0.16,,---,0.61,VWS V14.01,2014-01-10 18:01:00,
2014-01-10 13:11:00,42.2,39.5,30.10,SSW,211,5.0,8.0,90,0.17,,---,0.64,VWS V14.01,2014-01-10 18:11:00,
2014-01-10 13:21:00,42.6,39.9,30.07,SSW,201,4.0,7.0,90,0.16,,---,0.66,VWS V14.01,2014-01-10 18:21:00,
2014-01-10 13:31:00,42.9,39.9,30.05,SW,225,5.0,7.0,89,0.15,,---,0.68,VWS V14.01,2014-01-10 18:31:00,
2014-01-10 13:41:00,43.2,40.2,30.05,SW,227,5.0,10.0,89,0.15,,---,0.70,VWS V14.01,2014-01-10 18:41:00,
2014-01-10 13:51:00,43.5,40.2,30.04,SW,217,4.0,9.0,88,0.15,,---,0.72,VWS V14.01,2014-01-10 18:51:00,
2014-01-10 14:01:00,43.8,40.2,30.04,SW,222,4.0,7.0,87,0.15,,---,0.74,VWS V14.01,2014-01-10 19:01:00,
2014-01-10 14:11:00,43.9,40.3,30.04,SW,221,4.0,9.0,87,0.15,,---,0.76,VWS V14.01,2014-01-10 19:11:00,
2014-01-10 14:21:00,44.2,40.6,30.02,SW,222,6.0,8.0,87,0.14,,---,0.78,VWS V14.01,2014-01-10 19:21:00,
2014-01-10 14:31:00,44.3,40.4,30.00,SW,217,3.0,7.0,86,0.14,,---,0.80,VWS V14.01,2014-01-10 19:31:00,
2014-01-10 14:41:00,44.6,40.7,30.00,SSW,209,3.0,8.0,86,0.14,,---,0.82,VWS V14.01,2014-01-10 19:41:00,
2014-01-10 14:51:00,44.6,40.4,29.99,SW,229,3.0,7.0,85,0.13,,---,0.83,VWS V14.01,2014-01-10 19:51:00,
2014-01-10 15:01:00,44.5,40.6,29.99,SSW,201,4.0,9.0,86,0.13,,---,0.85,VWS V14.01,2014-01-10 20:01:00,
2014-01-10 15:11:00,44.5,40.6,29.99,SW,219,5.0,9.0,86,0.12,,---,0.86,VWS V14.01,2014-01-10 20:11:00,
2014-01-10 15:21:00,44.5,40.6,29.99,SSW,210,4.0,11.0,86,0.12,,---,0.88,VWS V14.01,2014-01-10 20:21:00,
2014-01-10 15:31:00,44.5,40.9,29.98,SSW,209,3.0,13.0,87,0.11,,---,0.89,VWS V14.01,2014-01-10 20:31:00,
2014-01-10 15:41:00,44.5,40.9,29.98,SW,215,2.0,6.0,87,0.10,,---,0.90,VWS V14.01,2014-01-10 20:41:00,
2014-01-10 15:51:00,44.5,40.9,29.97,SW,234,4.0,7.0,87,0.09,,---,0.91,VWS V14.01,2014-01-10 20:51:00,
2014-01-10 16:01:00,44.6,41.0,29.97,SSW,211,5.0,6.0,87,0.09,,---,0.92,VWS V14.01,2014-01-10 21:01:00,
2014-01-10 16:11:00,44.6,41.3,29.97,SW,234,4.0,11.0,88,0.08,,---,0.93,VWS V14.01,2014-01-10 21:11:00,
2014-01-10 16:21:00,44.8,41.8,29.97,South,188,4.0,10.0,89,0.08,,---,0.94,VWS V14.01,2014-01-10 21:21:00,
2014-01-10 16:31:00,44.5,41.8,29.97,SW,218,3.0,8.0,90,0.07,,---,0.95,VWS V14.01,2014-01-10 21:31:00,
2014-01-10 16:41:00,44.5,42.0,29.97,SW,227,5.0,9.0,91,0.08,,---,0.97,VWS V14.01,2014-01-10 21:41:00,
2014-01-10 16:51:00,44.3,42.1,29.97,SW,221,6.0,9.0,92,0.07,,---,0.97,VWS V14.01,2014-01-10 21:51:00,
2014-01-10 17:01:00,44.2,42.3,29.96,SW,215,3.0,6.0,93,0.07,,---,0.98,VWS V14.01,2014-01-10 22:01:00,
2014-01-10 17:11:00,44.2,42.6,29.96,SW,219,5.0,7.0,94,0.07,,---,0.99,VWS V14.01,2014-01-10 22:11:00,
2014-01-10 17:21:00,44.2,42.6,29.94,SW,228,5.0,6.0,94,0.06,,---,0.99,VWS V14.01,2014-01-10 22:21:00,
2014-01-10 17:31:00,44.3,43.0,29.93,SW,221,5.0,6.0,95,0.05,,---,0.99,VWS V14.01,2014-01-10 22:31:00,
2014-01-10 17:41:00,44.3,43.0,29.93,SW,215,3.0,7.0,95,0.04,,---,0.99,VWS V14.01,2014-01-10 22:41:00,
2014-01-10 17:51:00,44.6,43.5,29.93,SW,217,6.0,10.0,96,0.03,,---,1.00,VWS V14.01,2014-01-10 22:51:00,
2014-01-10 18:01:00,44.5,43.4,29.93,SSW,213,5.0,9.0,96,0.03,,---,1.00,VWS V14.01,2014-01-10 23:01:00,
2014-01-10 18:11:00,44.6,43.5,29.93,SW,217,6.0,8.0,96,0.03,,---,1.01,VWS V14.01,2014-01-10 23:11:00,
2014-01-10 18:21:00,44.6,43.5,29.94,WSW,242,3.0,10.0,96,0.02,,---,1.01,VWS V14.01,2014-01-10 23:21:00,
2014-01-10 18:31:00,44.8,43.7,29.93,SW,236,6.0,7.0,96,0.03,,---,1.02,VWS V14.01,2014-01-10 23:31:00,
2014-01-10 18:41:00,44.9,43.8,29.93,SSW,200,4.0,7.0,96,0.04,,---,1.03,VWS V14.01,2014-01-10 23:41:00,
2014-01-10 18:51:00,45.2,44.4,29.91,SW,216,4.0,9.0,97,0.04,,---,1.03,VWS V14.01,2014-01-10 23:51:00,
2014-01-10 19:01:00,45.2,44.4,29.90,SSW,201,3.0,7.0,97,0.03,,---,1.03,VWS V14.01,2014-01-11 00:01:00,
2014-01-10 19:11:00,45.1,44.0,29.90,SW,221,2.0,9.0,96,0.04,,---,1.04,VWS V14.01,2014-01-11 00:11:00,
2014-01-10 19:21:00,45.2,44.4,29.88,SW,232,5.0,9.0,97,0.03,,---,1.04,VWS V14.01,2014-01-11 00:21:00,
2014-01-10 19:31:00,45.2,44.4,29.87,SSW,196,4.0,7.0,97,0.03,,---,1.04,VWS V14.01,2014-01-11 00:31:00,
2014-01-10 19:41:00,45.4,44.6,29.87,SW,227,5.0,7.0,97,0.02,,---,1.04,VWS V14.01,2014-01-11 00:41:00,
2014-01-10 19:51:00,45.4,44.6,29.87,SW,226,6.0,10.0,97,0.01,,---,1.04,VWS V14.01,2014-01-11 00:51:00,
2014-01-10 20:01:00,45.4,44.6,29.87,SW,223,4.0,6.0,97,0.01,,---,1.04,VWS V14.01,2014-01-11 01:01:00,
2014-01-10 20:11:00,45.5,45.0,29.87,SW,227,4.0,11.0,98,0.01,,---,1.04,VWS V14.01,2014-01-11 01:11:00,
2014-01-10 20:21:00,45.5,45.0,29.86,SW,223,4.0,10.0,98,0.00,,---,1.04,VWS V14.01,2014-01-11 01:21:00,
2014-01-10 20:31:00,45.7,45.2,29.83,SSW,207,5.0,9.0,98,0.00,,---,1.04,VWS V14.01,2014-01-11 01:31:00,
2014-01-10 20:41:00,45.7,45.2,29.83,SSW,210,6.0,9.0,98,0.00,,---,1.04,VWS V14.01,2014-01-11 01:41:00,
2014-01-10 20:51:00,45.8,45.3,29.82,SW,217,4.0,9.0,98,0.01,,---,1.05,VWS V14.01,2014-01-11 01:51:00,
2014-01-10 21:01:00,45.8,45.3,29.81,SW,218,5.0,10.0,98,0.01,,---,1.05,VWS V14.01,2014-01-11 02:01:00,
2014-01-10 21:11:00,45.8,45.3,29.81,WSW,248,6.0,11.0,98,0.01,,---,1.05,VWS V14.01,2014-01-11 02:11:00,
2014-01-10 21:21:00,45.8,45.3,29.83,SW,226,4.0,8.0,98,0.01,,---,1.05,VWS V14.01,2014-01-11 02:21:00,
2014-01-10 21:31:00,46.1,45.8,29.82,SSW,211,6.0,11.0,99,0.01,,---,1.05,VWS V14.01,2014-01-11 02:31:00,
2014-01-10 21:41:00,46.2,45.9,29.82,South,188,11.0,11.0,99,0.02,,---,1.06,VWS V14.01,2014-01-11 02:41:00,
2014-01-10 21:51:00,46.2,45.9,29.79,SW,225,4.0,11.0,99,0.03,,---,1.07,VWS V14.01,2014-01-11 02:51:00,
2014-01-10 22:11:00,46.4,46.1,29.79,SW,215,6.0,11.0,99,0.03,,---,1.08,VWS V14.01,2014-01-11 03:11:00,
2014-01-10 22:21:00,46.5,46.2,29.77,SW,226,2.0,12.0,99,0.04,,---,1.09,VWS V14.01,2014-01-11 03:21:00,
2014-01-10 22:31:00,46.7,46.4,29.77,SW,219,4.0,11.0,99,0.05,,---,1.10,VWS V14.01,2014-01-11 03:31:00,
2014-01-10 22:41:00,46.7,46.4,29.77,SW,229,6.0,13.0,99,0.06,,---,1.11,VWS V14.01,2014-01-11 03:41:00,
2014-01-10 22:51:00,46.4,45.9,29.78,WSW,246,6.0,7.0,98,0.06,,---,1.12,VWS V14.01,2014-01-11 03:51:00,
2014-01-10 23:01:00,46.4,45.9,29.78,SW,222,2.0,8.0,98,0.06,,---,1.13,VWS V14.01,2014-01-11 04:01:00,
2014-01-10 23:11:00,46.2,45.7,29.78,SW,220,5.0,6.0,98,0.05,,---,1.13,VWS V14.01,2014-01-11 04:11:00,
2014-01-10 23:21:00,46.1,45.6,29.78,WSW,254,3.0,6.0,98,0.05,,---,1.13,VWS V14.01,2014-01-11 04:21:00,
2014-01-10 23:31:00,46.2,45.9,29.77,SW,232,3.0,6.0,99,0.05,,---,1.14,VWS V14.01,2014-01-11 04:31:00,
2014-01-10 23:41:00,46.4,46.1,29.77,SSW,203,4.0,7.0,99,0.04,,---,1.14,VWS V14.01,2014-01-11 04:41:00,
2014-01-10 23:51:00,46.7,46.4,29.75,SW,234,6.0,9.0,99,0.04,,---,1.15,VWS V14.01,2014-01-11 04:51:00,